sensor_id;sensor_type;location;lat;lon;timestamp;P1;durP1;ratioP1;P2;durP2;ratioP2
69744;SDS011;57015;50.120;-5.168;2023-09-18T00:00:49;7.37;;;1.10;;
69744;SDS011;57015;50.120;-5.168;2023-09-18T00:03:15;5.70;;;1.00;;
69744;SDS011;57015;50.120;-5.168;2023-09-18T00:05:44;8.33;;;0.67;;
69744;SDS011;57015;50.120;-5.168;2023-09-18T00:08:11;4.18;;;1.02;;
69744;SDS011;57015;50.120;-5.168;2023-09-18T00:10:36;9.27;;;1.40;;
69744;SDS011;57015;50.120;-5.168;2023-09-18T00:13:02;8.48;;;1.33;;
69744;SDS011;57015;50.120;-5.168;2023-09-18T00:15:27;6.40;;;0.90;;
69744;SDS011;57015;50.120;-5.168;2023-09-18T00:17:52;8.90;;;0.97;;
69744;SDS011;57015;50.120;-5.168;2023-09-18T00:20:18;8.87;;;0.90;;
69744;SDS011;57015;50.120;-5.168;2023-09-18T00:22:44;11.57;;;0.85;;
69744;SDS011;57015;50.120;-5.168;2023-09-18T00:25:10;5.70;;;1.00;;
69744;SDS011;57015;50.120;-5.168;2023-09-18T00:27:35;7.82;;;1.33;;
69744;SDS011;57015;50.120;-5.168;2023-09-18T00:30:01;6.10;;;1.03;;
69744;SDS011;57015;50.120;-5.168;2023-09-18T00:32:28;9.30;;;1.60;;
69744;SDS011;57015;50.120;-5.168;2023-09-18T00:34:53;9.23;;;1.50;;
69744;SDS011;57015;50.120;-5.168;2023-09-18T00:37:19;10.90;;;1.43;;
69744;SDS011;57015;50.120;-5.168;2023-09-18T00:39:44;8.00;;;1.20;;
69744;SDS011;57015;50.120;-5.168;2023-09-18T00:42:10;10.27;;;1.48;;
69744;SDS011;57015;50.120;-5.168;2023-09-18T00:44:38;8.43;;;1.20;;
69744;SDS011;57015;50.120;-5.168;2023-09-18T00:47:10;12.90;;;1.73;;
69744;SDS011;57015;50.120;-5.168;2023-09-18T00:49:36;6.78;;;1.67;;
69744;SDS011;57015;50.120;-5.168;2023-09-18T00:52:04;7.70;;;1.40;;
69744;SDS011;57015;50.120;-5.168;2023-09-18T00:54:30;14.15;;;1.77;;
69744;SDS011;57015;50.120;-5.168;2023-09-18T00:56:56;7.90;;;1.83;;
69744;SDS011;57015;50.120;-5.168;2023-09-18T00:59:22;8.63;;;1.45;;
69744;SDS011;57015;50.120;-5.168;2023-09-18T01:01:48;9.47;;;1.40;;
69744;SDS011;57015;50.120;-5.168;2023-09-18T01:04:15;9.02;;;1.58;;
69744;SDS011;57015;50.120;-5.168;2023-09-18T01:06:41;10.07;;;2.15;;
69744;SDS011;57015;50.120;-5.168;2023-09-18T01:09:06;8.03;;;1.80;;
69744;SDS011;57015;50.120;-5.168;2023-09-18T01:17:10;13.20;;;2.10;;
69744;SDS011;57015;50.120;-5.168;2023-09-18T01:22:09;9.40;;;1.40;;
69744;SDS011;57015;50.120;-5.168;2023-09-18T01:24:35;7.77;;;1.97;;
69744;SDS011;57015;50.120;-5.168;2023-09-18T01:27:02;9.32;;;1.55;;
69744;SDS011;57015;50.120;-5.168;2023-09-18T01:29:29;10.00;;;2.10;;
69744;SDS011;57015;50.120;-5.168;2023-09-18T01:31:55;12.77;;;2.13;;
69744;SDS011;57015;50.120;-5.168;2023-09-18T01:34:21;5.77;;;1.30;;
69744;SDS011;57015;50.120;-5.168;2023-09-18T01:36:52;13.20;;;1.77;;
69744;SDS011;57015;50.120;-5.168;2023-09-18T01:39:18;15.03;;;2.27;;
69744;SDS011;57015;50.120;-5.168;2023-09-18T01:41:44;9.20;;;1.65;;
69744;SDS011;57015;50.120;-5.168;2023-09-18T01:44:10;8.18;;;2.00;;
69744;SDS011;57015;50.120;-5.168;2023-09-18T01:46:36;10.70;;;1.63;;
69744;SDS011;57015;50.120;-5.168;2023-09-18T01:49:02;11.02;;;1.77;;
69744;SDS011;57015;50.120;-5.168;2023-09-18T01:51:28;11.37;;;1.83;;
69744;SDS011;57015;50.120;-5.168;2023-09-18T01:53:55;8.88;;;1.40;;
69744;SDS011;57015;50.120;-5.168;2023-09-18T01:56:20;10.85;;;1.67;;
69744;SDS011;57015;50.120;-5.168;2023-09-18T01:58:46;10.07;;;2.30;;
69744;SDS011;57015;50.120;-5.168;2023-09-18T02:01:11;9.47;;;1.60;;
69744;SDS011;57015;50.120;-5.168;2023-09-18T02:03:36;10.00;;;1.33;;
69744;SDS011;57015;50.120;-5.168;2023-09-18T02:06:07;15.40;;;1.83;;
69744;SDS011;57015;50.120;-5.168;2023-09-18T02:08:35;14.05;;;1.85;;
69744;SDS011;57015;50.120;-5.168;2023-09-18T02:11:00;8.10;;;1.60;;
69744;SDS011;57015;50.120;-5.168;2023-09-18T02:13:26;8.20;;;1.60;;
69744;SDS011;57015;50.120;-5.168;2023-09-18T02:15:51;8.97;;;1.47;;
69744;SDS011;57015;50.120;-5.168;2023-09-18T02:18:19;13.88;;;2.97;;
69744;SDS011;57015;50.120;-5.168;2023-09-18T02:20:44;7.10;;;1.37;;
69744;SDS011;57015;50.120;-5.168;2023-09-18T02:23:13;8.25;;;1.60;;
69744;SDS011;57015;50.120;-5.168;2023-09-18T02:25:39;6.87;;;1.73;;
69744;SDS011;57015;50.120;-5.168;2023-09-18T02:28:05;7.90;;;1.50;;
69744;SDS011;57015;50.120;-5.168;2023-09-18T02:30:34;8.27;;;1.58;;
69744;SDS011;57015;50.120;-5.168;2023-09-18T02:32:59;11.03;;;1.33;;
69744;SDS011;57015;50.120;-5.168;2023-09-18T02:35:28;7.75;;;1.60;;
69744;SDS011;57015;50.120;-5.168;2023-09-18T02:37:53;8.33;;;1.43;;
69744;SDS011;57015;50.120;-5.168;2023-09-18T02:40:19;12.00;;;1.95;;
69744;SDS011;57015;50.120;-5.168;2023-09-18T02:42:44;8.93;;;1.55;;
69744;SDS011;57015;50.120;-5.168;2023-09-18T02:45:09;10.33;;;1.47;;
69744;SDS011;57015;50.120;-5.168;2023-09-18T02:47:35;9.97;;;1.20;;
69744;SDS011;57015;50.120;-5.168;2023-09-18T02:50:03;9.30;;;1.63;;
69744;SDS011;57015;50.120;-5.168;2023-09-18T02:52:30;7.20;;;1.23;;
69744;SDS011;57015;50.120;-5.168;2023-09-18T02:54:55;10.40;;;1.53;;
69744;SDS011;57015;50.120;-5.168;2023-09-18T02:57:21;7.53;;;1.37;;
69744;SDS011;57015;50.120;-5.168;2023-09-18T02:59:46;8.85;;;1.60;;
69744;SDS011;57015;50.120;-5.168;2023-09-18T03:02:11;5.13;;;1.20;;
69744;SDS011;57015;50.120;-5.168;2023-09-18T03:04:37;6.90;;;1.20;;
69744;SDS011;57015;50.120;-5.168;2023-09-18T03:07:02;5.83;;;1.73;;
69744;SDS011;57015;50.120;-5.168;2023-09-18T03:09:28;8.30;;;1.33;;
69744;SDS011;57015;50.120;-5.168;2023-09-18T03:11:54;7.97;;;1.33;;
69744;SDS011;57015;50.120;-5.168;2023-09-18T03:14:20;5.93;;;1.20;;
69744;SDS011;57015;50.120;-5.168;2023-09-18T03:16:45;3.83;;;1.07;;
69744;SDS011;57015;50.120;-5.168;2023-09-18T03:19:10;3.00;;;0.87;;
69744;SDS011;57015;50.120;-5.168;2023-09-18T03:21:36;3.83;;;0.90;;
69744;SDS011;57015;50.120;-5.168;2023-09-18T03:24:01;4.93;;;1.05;;
69744;SDS011;57015;50.120;-5.168;2023-09-18T03:26:27;4.43;;;0.88;;
69744;SDS011;57015;50.120;-5.168;2023-09-18T03:28:53;11.93;;;2.13;;
69744;SDS011;57015;50.120;-5.168;2023-09-18T03:31:18;2.65;;;0.85;;
69744;SDS011;57015;50.120;-5.168;2023-09-18T03:33:44;2.63;;;0.67;;
69744;SDS011;57015;50.120;-5.168;2023-09-18T03:36:09;4.97;;;0.73;;
69744;SDS011;57015;50.120;-5.168;2023-09-18T03:38:36;6.35;;;1.05;;
69744;SDS011;57015;50.120;-5.168;2023-09-18T03:41:01;7.07;;;1.20;;
69744;SDS011;57015;50.120;-5.168;2023-09-18T03:43:27;8.47;;;1.30;;
69744;SDS011;57015;50.120;-5.168;2023-09-18T03:45:52;11.03;;;1.70;;
69744;SDS011;57015;50.120;-5.168;2023-09-18T03:48:17;6.50;;;1.57;;
69744;SDS011;57015;50.120;-5.168;2023-09-18T03:50:43;7.65;;;1.95;;
69744;SDS011;57015;50.120;-5.168;2023-09-18T03:53:09;7.63;;;1.83;;
69744;SDS011;57015;50.120;-5.168;2023-09-18T03:55:35;9.43;;;2.63;;
69744;SDS011;57015;50.120;-5.168;2023-09-18T03:58:00;10.33;;;2.03;;
69744;SDS011;57015;50.120;-5.168;2023-09-18T04:00:25;8.87;;;2.10;;
69744;SDS011;57015;50.120;-5.168;2023-09-18T04:02:51;6.37;;;2.03;;
69744;SDS011;57015;50.120;-5.168;2023-09-18T04:05:16;6.20;;;1.90;;
69744;SDS011;57015;50.120;-5.168;2023-09-18T04:07:42;12.40;;;2.27;;
69744;SDS011;57015;50.120;-5.168;2023-09-18T04:10:11;12.38;;;2.03;;
69744;SDS011;57015;50.120;-5.168;2023-09-18T04:12:42;4.60;;;1.83;;
69744;SDS011;57015;50.120;-5.168;2023-09-18T04:15:09;8.57;;;1.83;;
69744;SDS011;57015;50.120;-5.168;2023-09-18T04:17:34;4.50;;;1.63;;
69744;SDS011;57015;50.120;-5.168;2023-09-18T04:19:59;6.70;;;1.77;;
69744;SDS011;57015;50.120;-5.168;2023-09-18T04:22:25;7.90;;;1.87;;
69744;SDS011;57015;50.120;-5.168;2023-09-18T04:24:50;8.90;;;1.53;;
69744;SDS011;57015;50.120;-5.168;2023-09-18T04:27:15;6.72;;;1.60;;
69744;SDS011;57015;50.120;-5.168;2023-09-18T04:29:41;7.43;;;1.20;;
69744;SDS011;57015;50.120;-5.168;2023-09-18T04:32:06;7.17;;;1.40;;
69744;SDS011;57015;50.120;-5.168;2023-09-18T04:34:32;7.50;;;1.67;;
69744;SDS011;57015;50.120;-5.168;2023-09-18T04:36:57;14.07;;;1.57;;
69744;SDS011;57015;50.120;-5.168;2023-09-18T04:39:22;8.03;;;1.30;;
69744;SDS011;57015;50.120;-5.168;2023-09-18T04:41:48;6.57;;;2.00;;
69744;SDS011;57015;50.120;-5.168;2023-09-18T04:44:14;6.27;;;1.60;;
69744;SDS011;57015;50.120;-5.168;2023-09-18T04:46:39;5.30;;;1.87;;
69744;SDS011;57015;50.120;-5.168;2023-09-18T04:49:07;5.20;;;2.40;;
69744;SDS011;57015;50.120;-5.168;2023-09-18T04:51:32;9.37;;;3.77;;
69744;SDS011;57015;50.120;-5.168;2023-09-18T04:53:58;8.07;;;2.90;;
69744;SDS011;57015;50.120;-5.168;2023-09-18T04:56:24;8.63;;;3.03;;
69744;SDS011;57015;50.120;-5.168;2023-09-18T04:58:51;6.68;;;3.38;;
69744;SDS011;57015;50.120;-5.168;2023-09-18T05:01:16;10.17;;;3.50;;
69744;SDS011;57015;50.120;-5.168;2023-09-18T05:03:42;9.82;;;3.13;;
69744;SDS011;57015;50.120;-5.168;2023-09-18T05:06:08;9.13;;;3.53;;
69744;SDS011;57015;50.120;-5.168;2023-09-18T05:08:33;12.43;;;5.05;;
69744;SDS011;57015;50.120;-5.168;2023-09-18T05:10:58;12.90;;;4.67;;
69744;SDS011;57015;50.120;-5.168;2023-09-18T05:13:24;13.53;;;4.13;;
69744;SDS011;57015;50.120;-5.168;2023-09-18T05:15:49;9.30;;;3.50;;
69744;SDS011;57015;50.120;-5.168;2023-09-18T05:18:15;15.13;;;3.65;;
69744;SDS011;57015;50.120;-5.168;2023-09-18T05:20:41;15.50;;;4.40;;
69744;SDS011;57015;50.120;-5.168;2023-09-18T05:23:06;11.05;;;3.38;;
69744;SDS011;57015;50.120;-5.168;2023-09-18T05:25:33;7.90;;;2.70;;
69744;SDS011;57015;50.120;-5.168;2023-09-18T05:28:02;8.15;;;2.65;;
69744;SDS011;57015;50.120;-5.168;2023-09-18T05:30:31;12.77;;;3.50;;
69744;SDS011;57015;50.120;-5.168;2023-09-18T05:32:59;5.38;;;2.47;;
69744;SDS011;57015;50.120;-5.168;2023-09-18T05:35:51;11.88;;;2.78;;
69744;SDS011;57015;50.120;-5.168;2023-09-18T05:38:16;12.43;;;2.90;;
69744;SDS011;57015;50.120;-5.168;2023-09-18T05:40:43;12.35;;;2.78;;
69744;SDS011;57015;50.120;-5.168;2023-09-18T05:43:09;11.07;;;2.80;;
69744;SDS011;57015;50.120;-5.168;2023-09-18T05:45:36;7.30;;;2.60;;
69744;SDS011;57015;50.120;-5.168;2023-09-18T05:48:01;7.47;;;2.25;;
69744;SDS011;57015;50.120;-5.168;2023-09-18T05:50:29;9.80;;;2.13;;
69744;SDS011;57015;50.120;-5.168;2023-09-18T05:52:56;8.35;;;2.00;;
69744;SDS011;57015;50.120;-5.168;2023-09-18T05:55:25;9.65;;;2.30;;
69744;SDS011;57015;50.120;-5.168;2023-09-18T05:57:52;10.75;;;2.63;;
69744;SDS011;57015;50.120;-5.168;2023-09-18T06:00:18;9.02;;;2.17;;
69744;SDS011;57015;50.120;-5.168;2023-09-18T06:02:43;9.23;;;2.20;;
69744;SDS011;57015;50.120;-5.168;2023-09-18T06:05:10;10.23;;;2.30;;
69744;SDS011;57015;50.120;-5.168;2023-09-18T06:07:36;4.53;;;1.70;;
69744;SDS011;57015;50.120;-5.168;2023-09-18T06:10:02;7.50;;;1.58;;
69744;SDS011;57015;50.120;-5.168;2023-09-18T06:12:27;6.83;;;1.60;;
69744;SDS011;57015;50.120;-5.168;2023-09-18T06:14:52;11.47;;;1.93;;
69744;SDS011;57015;50.120;-5.168;2023-09-18T06:17:18;8.53;;;1.43;;
69744;SDS011;57015;50.120;-5.168;2023-09-18T06:19:44;5.80;;;1.42;;
69744;SDS011;57015;50.120;-5.168;2023-09-18T06:22:10;9.45;;;1.42;;
69744;SDS011;57015;50.120;-5.168;2023-09-18T06:24:36;6.63;;;1.50;;
69744;SDS011;57015;50.120;-5.168;2023-09-18T06:27:01;5.60;;;1.43;;
69744;SDS011;57015;50.120;-5.168;2023-09-18T06:29:29;6.35;;;1.30;;
69744;SDS011;57015;50.120;-5.168;2023-09-18T06:31:55;10.32;;;1.42;;
69744;SDS011;57015;50.120;-5.168;2023-09-18T06:34:20;7.23;;;1.20;;
69744;SDS011;57015;50.120;-5.168;2023-09-18T06:36:46;6.13;;;1.03;;
69744;SDS011;57015;50.120;-5.168;2023-09-18T06:39:11;4.73;;;1.17;;
69744;SDS011;57015;50.120;-5.168;2023-09-18T06:41:37;6.05;;;1.00;;
69744;SDS011;57015;50.120;-5.168;2023-09-18T06:44:02;8.20;;;0.90;;
69744;SDS011;57015;50.120;-5.168;2023-09-18T06:46:28;6.00;;;0.90;;
69744;SDS011;57015;50.120;-5.168;2023-09-18T06:48:53;5.97;;;0.60;;
69744;SDS011;57015;50.120;-5.168;2023-09-18T06:51:19;6.87;;;0.73;;
69744;SDS011;57015;50.120;-5.168;2023-09-18T06:53:44;4.63;;;0.67;;
69744;SDS011;57015;50.120;-5.168;2023-09-18T06:56:10;5.40;;;1.50;;
69744;SDS011;57015;50.120;-5.168;2023-09-18T06:58:37;5.75;;;0.80;;
69744;SDS011;57015;50.120;-5.168;2023-09-18T07:01:03;6.63;;;0.70;;
69744;SDS011;57015;50.120;-5.168;2023-09-18T07:03:31;5.13;;;0.90;;
69744;SDS011;57015;50.120;-5.168;2023-09-18T07:05:59;5.10;;;0.70;;
69744;SDS011;57015;50.120;-5.168;2023-09-18T07:08:25;9.37;;;1.10;;
69744;SDS011;57015;50.120;-5.168;2023-09-18T07:10:51;7.90;;;0.90;;
69744;SDS011;57015;50.120;-5.168;2023-09-18T07:13:17;9.07;;;1.00;;
69744;SDS011;57015;50.120;-5.168;2023-09-18T07:15:42;5.07;;;0.60;;
69744;SDS011;57015;50.120;-5.168;2023-09-18T07:18:09;3.57;;;0.90;;
69744;SDS011;57015;50.120;-5.168;2023-09-18T07:20:39;6.65;;;1.63;;
69744;SDS011;57015;50.120;-5.168;2023-09-18T07:23:05;9.57;;;1.30;;
69744;SDS011;57015;50.120;-5.168;2023-09-18T07:25:30;7.90;;;0.97;;
69744;SDS011;57015;50.120;-5.168;2023-09-18T07:27:55;3.57;;;0.97;;
69744;SDS011;57015;50.120;-5.168;2023-09-18T07:30:21;6.03;;;1.10;;
69744;SDS011;57015;50.120;-5.168;2023-09-18T07:32:47;6.93;;;1.20;;
69744;SDS011;57015;50.120;-5.168;2023-09-18T07:35:12;4.73;;;1.10;;
69744;SDS011;57015;50.120;-5.168;2023-09-18T07:37:39;5.97;;;1.08;;
69744;SDS011;57015;50.120;-5.168;2023-09-18T07:40:08;9.53;;;1.30;;
69744;SDS011;57015;50.120;-5.168;2023-09-18T07:42:33;5.20;;;1.40;;
69744;SDS011;57015;50.120;-5.168;2023-09-18T07:44:59;9.73;;;1.40;;
69744;SDS011;57015;50.120;-5.168;2023-09-18T07:47:25;5.73;;;1.17;;
69744;SDS011;57015;50.120;-5.168;2023-09-18T07:49:50;5.25;;;1.30;;
69744;SDS011;57015;50.120;-5.168;2023-09-18T07:52:16;10.90;;;2.13;;
69744;SDS011;57015;50.120;-5.168;2023-09-18T07:54:43;7.57;;;1.35;;
69744;SDS011;57015;50.120;-5.168;2023-09-18T07:57:08;10.75;;;1.40;;
69744;SDS011;57015;50.120;-5.168;2023-09-18T07:59:37;7.50;;;1.70;;
69744;SDS011;57015;50.120;-5.168;2023-09-18T08:02:03;8.45;;;1.35;;
69744;SDS011;57015;50.120;-5.168;2023-09-18T08:04:33;8.48;;;1.40;;
69744;SDS011;57015;50.120;-5.168;2023-09-18T08:06:58;9.60;;;1.20;;
69744;SDS011;57015;50.120;-5.168;2023-09-18T08:09:25;11.17;;;1.80;;
69744;SDS011;57015;50.120;-5.168;2023-09-18T08:11:51;8.07;;;1.50;;
69744;SDS011;57015;50.120;-5.168;2023-09-18T08:14:20;10.70;;;1.70;;
69744;SDS011;57015;50.120;-5.168;2023-09-18T08:16:45;10.83;;;1.30;;
69744;SDS011;57015;50.120;-5.168;2023-09-18T08:19:14;12.57;;;1.40;;
69744;SDS011;57015;50.120;-5.168;2023-09-18T08:21:41;9.18;;;1.27;;
69744;SDS011;57015;50.120;-5.168;2023-09-18T08:24:07;9.23;;;1.60;;
69744;SDS011;57015;50.120;-5.168;2023-09-18T08:26:32;5.70;;;1.17;;
69744;SDS011;57015;50.120;-5.168;2023-09-18T08:28:57;9.27;;;1.23;;
69744;SDS011;57015;50.120;-5.168;2023-09-18T08:31:23;10.80;;;1.40;;
69744;SDS011;57015;50.120;-5.168;2023-09-18T08:33:49;11.37;;;1.93;;
69744;SDS011;57015;50.120;-5.168;2023-09-18T08:36:15;13.75;;;1.33;;
69744;SDS011;57015;50.120;-5.168;2023-09-18T08:38:41;14.13;;;1.13;;
69744;SDS011;57015;50.120;-5.168;2023-09-18T08:41:08;8.55;;;1.73;;
69744;SDS011;57015;50.120;-5.168;2023-09-18T08:43:34;6.90;;;1.13;;
69744;SDS011;57015;50.120;-5.168;2023-09-18T08:46:00;9.33;;;1.33;;
69744;SDS011;57015;50.120;-5.168;2023-09-18T08:48:29;8.77;;;1.60;;
69744;SDS011;57015;50.120;-5.168;2023-09-18T08:51:00;5.40;;;1.02;;
69744;SDS011;57015;50.120;-5.168;2023-09-18T08:53:28;8.48;;;1.10;;
69744;SDS011;57015;50.120;-5.168;2023-09-18T08:55:55;7.78;;;1.20;;
69744;SDS011;57015;50.120;-5.168;2023-09-18T08:58:24;6.23;;;0.87;;
69744;SDS011;57015;50.120;-5.168;2023-09-18T09:00:50;9.20;;;0.90;;
69744;SDS011;57015;50.120;-5.168;2023-09-18T09:03:16;8.57;;;1.30;;
69744;SDS011;57015;50.120;-5.168;2023-09-18T09:05:41;6.85;;;0.90;;
69744;SDS011;57015;50.120;-5.168;2023-09-18T09:08:07;10.93;;;0.83;;
69744;SDS011;57015;50.120;-5.168;2023-09-18T09:10:32;7.73;;;1.20;;
69744;SDS011;57015;50.120;-5.168;2023-09-18T09:12:58;8.18;;;1.10;;
69744;SDS011;57015;50.120;-5.168;2023-09-18T09:15:43;6.57;;;0.57;;
69744;SDS011;57015;50.120;-5.168;2023-09-18T09:18:11;7.53;;;0.98;;
69744;SDS011;57015;50.120;-5.168;2023-09-18T09:20:37;8.27;;;0.80;;
69744;SDS011;57015;50.120;-5.168;2023-09-18T09:23:02;2.90;;;0.50;;
69744;SDS011;57015;50.120;-5.168;2023-09-18T09:25:30;3.42;;;0.68;;
69744;SDS011;57015;50.120;-5.168;2023-09-18T09:27:57;4.17;;;0.57;;
69744;SDS011;57015;50.120;-5.168;2023-09-18T09:30:24;4.38;;;0.50;;
69744;SDS011;57015;50.120;-5.168;2023-09-18T09:32:51;3.75;;;0.38;;
69744;SDS011;57015;50.120;-5.168;2023-09-18T09:35:27;3.55;;;0.40;;
69744;SDS011;57015;50.120;-5.168;2023-09-18T09:37:58;3.03;;;0.50;;
69744;SDS011;57015;50.120;-5.168;2023-09-18T09:40:34;3.77;;;0.50;;
69744;SDS011;57015;50.120;-5.168;2023-09-18T09:43:00;1.95;;;0.30;;
69744;SDS011;57015;50.120;-5.168;2023-09-18T09:45:29;3.83;;;1.27;;
69744;SDS011;57015;50.120;-5.168;2023-09-18T09:48:00;5.03;;;0.70;;
69744;SDS011;57015;50.120;-5.168;2023-09-18T09:50:25;2.13;;;0.35;;
69744;SDS011;57015;50.120;-5.168;2023-09-18T09:52:51;3.50;;;0.70;;
69744;SDS011;57015;50.120;-5.168;2023-09-18T09:57:46;4.23;;;0.60;;
69744;SDS011;57015;50.120;-5.168;2023-09-18T10:00:13;3.57;;;0.50;;
69744;SDS011;57015;50.120;-5.168;2023-09-18T10:03:01;5.07;;;0.75;;
69744;SDS011;57015;50.120;-5.168;2023-09-18T10:05:33;4.22;;;0.57;;
69744;SDS011;57015;50.120;-5.168;2023-09-18T10:08:45;5.55;;;0.52;;
69744;SDS011;57015;50.120;-5.168;2023-09-18T10:10:52;8.82;;;1.08;;
69744;SDS011;57015;50.120;-5.168;2023-09-18T10:15:44;5.38;;;0.52;;
69744;SDS011;57015;50.120;-5.168;2023-09-18T10:20:56;9.02;;;0.70;;
69744;SDS011;57015;50.120;-5.168;2023-09-18T10:24:12;6.32;;;0.65;;
69744;SDS011;57015;50.120;-5.168;2023-09-18T10:26:47;3.92;;;0.88;;
69744;SDS011;57015;50.120;-5.168;2023-09-18T10:29:15;3.30;;;0.40;;
69744;SDS011;57015;50.120;-5.168;2023-09-18T10:31:43;4.50;;;0.70;;
69744;SDS011;57015;50.120;-5.168;2023-09-18T10:34:09;4.80;;;0.77;;
69744;SDS011;57015;50.120;-5.168;2023-09-18T10:36:36;8.63;;;0.80;;
69744;SDS011;57015;50.120;-5.168;2023-09-18T10:39:02;4.00;;;0.68;;
69744;SDS011;57015;50.120;-5.168;2023-09-18T10:41:33;4.88;;;0.68;;
69744;SDS011;57015;50.120;-5.168;2023-09-18T10:43:59;4.88;;;0.88;;
69744;SDS011;57015;50.120;-5.168;2023-09-18T10:46:26;6.65;;;0.70;;
69744;SDS011;57015;50.120;-5.168;2023-09-18T10:48:52;5.72;;;0.57;;
69744;SDS011;57015;50.120;-5.168;2023-09-18T10:51:21;6.23;;;0.57;;
69744;SDS011;57015;50.120;-5.168;2023-09-18T10:53:47;3.80;;;0.70;;
69744;SDS011;57015;50.120;-5.168;2023-09-18T10:56:16;5.43;;;0.80;;
69744;SDS011;57015;50.120;-5.168;2023-09-18T10:58:42;6.65;;;0.68;;
69744;SDS011;57015;50.120;-5.168;2023-09-18T11:01:11;5.95;;;0.82;;
69744;SDS011;57015;50.120;-5.168;2023-09-18T11:03:37;8.80;;;0.80;;
69744;SDS011;57015;50.120;-5.168;2023-09-18T11:06:05;5.35;;;0.68;;
69744;SDS011;57015;50.120;-5.168;2023-09-18T11:11:18;5.25;;;1.00;;
69744;SDS011;57015;50.120;-5.168;2023-09-18T11:13:51;6.30;;;0.80;;
69744;SDS011;57015;50.120;-5.168;2023-09-18T11:18:51;5.15;;;0.80;;
69744;SDS011;57015;50.120;-5.168;2023-09-18T11:21:39;6.35;;;0.82;;
69744;SDS011;57015;50.120;-5.168;2023-09-18T11:24:06;6.20;;;1.33;;
69744;SDS011;57015;50.120;-5.168;2023-09-18T11:26:42;7.47;;;0.70;;
69744;SDS011;57015;50.120;-5.168;2023-09-18T11:29:12;9.95;;;1.27;;
69744;SDS011;57015;50.120;-5.168;2023-09-18T11:34:28;4.05;;;0.70;;
69744;SDS011;57015;50.120;-5.168;2023-09-18T11:37:00;8.73;;;1.13;;
69744;SDS011;57015;50.120;-5.168;2023-09-18T11:39:37;7.80;;;1.03;;
69744;SDS011;57015;50.120;-5.168;2023-09-18T11:42:14;9.93;;;1.00;;
69744;SDS011;57015;50.120;-5.168;2023-09-18T11:44:42;9.10;;;1.00;;
69744;SDS011;57015;50.120;-5.168;2023-09-18T11:47:11;6.28;;;0.80;;
69744;SDS011;57015;50.120;-5.168;2023-09-18T11:49:47;4.13;;;0.98;;
69744;SDS011;57015;50.120;-5.168;2023-09-18T11:52:22;11.40;;;1.47;;
69744;SDS011;57015;50.120;-5.168;2023-09-18T11:54:49;5.32;;;1.08;;
69744;SDS011;57015;50.120;-5.168;2023-09-18T11:57:16;6.57;;;0.90;;
69744;SDS011;57015;50.120;-5.168;2023-09-18T11:59:43;3.70;;;0.60;;
69744;SDS011;57015;50.120;-5.168;2023-09-18T12:02:11;6.40;;;0.90;;
69744;SDS011;57015;50.120;-5.168;2023-09-18T12:04:45;9.03;;;1.10;;
69744;SDS011;57015;50.120;-5.168;2023-09-18T12:07:12;4.32;;;0.57;;
69744;SDS011;57015;50.120;-5.168;2023-09-18T12:09:37;6.82;;;1.05;;
69744;SDS011;57015;50.120;-5.168;2023-09-18T12:12:04;10.38;;;1.27;;
69744;SDS011;57015;50.120;-5.168;2023-09-18T12:14:31;5.63;;;1.27;;
69744;SDS011;57015;50.120;-5.168;2023-09-18T12:16:58;5.40;;;1.20;;
69744;SDS011;57015;50.120;-5.168;2023-09-18T12:19:25;10.25;;;1.73;;
69744;SDS011;57015;50.120;-5.168;2023-09-18T12:21:50;9.40;;;1.98;;
69744;SDS011;57015;50.120;-5.168;2023-09-18T12:26:48;4.88;;;0.70;;
69744;SDS011;57015;50.120;-5.168;2023-09-18T12:29:14;10.63;;;1.35;;
69744;SDS011;57015;50.120;-5.168;2023-09-18T12:31:40;6.60;;;1.30;;
69744;SDS011;57015;50.120;-5.168;2023-09-18T12:34:13;8.52;;;1.30;;
69744;SDS011;57015;50.120;-5.168;2023-09-18T12:36:48;10.52;;;1.02;;
69744;SDS011;57015;50.120;-5.168;2023-09-18T12:39:15;5.40;;;1.03;;
69744;SDS011;57015;50.120;-5.168;2023-09-18T12:41:41;5.32;;;1.00;;
69744;SDS011;57015;50.120;-5.168;2023-09-18T12:44:08;6.30;;;1.17;;
69744;SDS011;57015;50.120;-5.168;2023-09-18T12:46:35;5.70;;;0.98;;
69744;SDS011;57015;50.120;-5.168;2023-09-18T12:49:14;6.43;;;1.07;;
69744;SDS011;57015;50.120;-5.168;2023-09-18T12:51:57;7.57;;;1.40;;
69744;SDS011;57015;50.120;-5.168;2023-09-18T12:54:42;3.60;;;0.88;;
69744;SDS011;57015;50.120;-5.168;2023-09-18T12:57:19;7.78;;;1.50;;
69744;SDS011;57015;50.120;-5.168;2023-09-18T12:59:45;9.37;;;1.77;;
69744;SDS011;57015;50.120;-5.168;2023-09-18T13:02:16;8.82;;;1.35;;
69744;SDS011;57015;50.120;-5.168;2023-09-18T13:04:47;5.97;;;1.25;;
69744;SDS011;57015;50.120;-5.168;2023-09-18T13:07:19;7.23;;;0.93;;
69744;SDS011;57015;50.120;-5.168;2023-09-18T13:10:00;6.28;;;1.20;;
69744;SDS011;57015;50.120;-5.168;2023-09-18T13:12:42;10.50;;;1.30;;
69744;SDS011;57015;50.120;-5.168;2023-09-18T13:15:10;8.23;;;1.00;;
69744;SDS011;57015;50.120;-5.168;2023-09-18T13:17:46;10.45;;;1.50;;
69744;SDS011;57015;50.120;-5.168;2023-09-18T13:22:51;6.18;;;1.15;;
69744;SDS011;57015;50.120;-5.168;2023-09-18T13:25:22;7.40;;;0.90;;
69744;SDS011;57015;50.120;-5.168;2023-09-18T13:27:52;9.27;;;0.93;;
69744;SDS011;57015;50.120;-5.168;2023-09-18T13:30:18;6.85;;;1.40;;
69744;SDS011;57015;50.120;-5.168;2023-09-18T13:32:45;8.20;;;1.67;;
69744;SDS011;57015;50.120;-5.168;2023-09-18T13:35:13;7.65;;;1.08;;
69744;SDS011;57015;50.120;-5.168;2023-09-18T13:37:39;8.15;;;1.38;;
69744;SDS011;57015;50.120;-5.168;2023-09-18T13:40:05;9.33;;;1.37;;
69744;SDS011;57015;50.120;-5.168;2023-09-18T13:42:37;8.63;;;1.30;;
69744;SDS011;57015;50.120;-5.168;2023-09-18T13:45:03;9.03;;;0.93;;
69744;SDS011;57015;50.120;-5.168;2023-09-18T13:47:31;9.93;;;1.00;;
69744;SDS011;57015;50.120;-5.168;2023-09-18T13:49:57;6.18;;;1.05;;
69744;SDS011;57015;50.120;-5.168;2023-09-18T13:52:31;6.53;;;1.08;;
69744;SDS011;57015;50.120;-5.168;2023-09-18T13:54:58;8.68;;;1.30;;
69744;SDS011;57015;50.120;-5.168;2023-09-18T13:57:23;8.90;;;1.00;;
69744;SDS011;57015;50.120;-5.168;2023-09-18T13:59:49;13.88;;;1.23;;
69744;SDS011;57015;50.120;-5.168;2023-09-18T14:02:16;7.80;;;0.98;;
69744;SDS011;57015;50.120;-5.168;2023-09-18T14:04:42;9.43;;;1.60;;
69744;SDS011;57015;50.120;-5.168;2023-09-18T14:07:08;8.90;;;1.50;;
69744;SDS011;57015;50.120;-5.168;2023-09-18T14:09:34;9.98;;;1.63;;
69744;SDS011;57015;50.120;-5.168;2023-09-18T14:12:00;10.65;;;2.03;;
69744;SDS011;57015;50.120;-5.168;2023-09-18T14:14:25;10.25;;;1.17;;
69744;SDS011;57015;50.120;-5.168;2023-09-18T14:16:51;8.37;;;1.30;;
69744;SDS011;57015;50.120;-5.168;2023-09-18T14:19:17;14.52;;;2.15;;
69744;SDS011;57015;50.120;-5.168;2023-09-18T14:21:42;8.50;;;1.43;;
69744;SDS011;57015;50.120;-5.168;2023-09-18T14:24:08;11.60;;;1.97;;
69744;SDS011;57015;50.120;-5.168;2023-09-18T14:26:35;9.32;;;1.50;;
69744;SDS011;57015;50.120;-5.168;2023-09-18T14:29:08;9.65;;;1.42;;
69744;SDS011;57015;50.120;-5.168;2023-09-18T14:31:37;11.37;;;1.13;;
69744;SDS011;57015;50.120;-5.168;2023-09-18T14:34:03;8.63;;;1.27;;
69744;SDS011;57015;50.120;-5.168;2023-09-18T14:36:30;13.05;;;1.73;;
69744;SDS011;57015;50.120;-5.168;2023-09-18T14:38:57;8.25;;;1.20;;
69744;SDS011;57015;50.120;-5.168;2023-09-18T14:41:24;10.05;;;1.42;;
69744;SDS011;57015;50.120;-5.168;2023-09-18T14:43:50;9.10;;;1.33;;
69744;SDS011;57015;50.120;-5.168;2023-09-18T14:46:16;10.63;;;1.33;;
69744;SDS011;57015;50.120;-5.168;2023-09-18T14:48:42;6.27;;;1.00;;
69744;SDS011;57015;50.120;-5.168;2023-09-18T14:51:07;9.38;;;1.17;;
69744;SDS011;57015;50.120;-5.168;2023-09-18T14:53:32;6.57;;;1.30;;
69744;SDS011;57015;50.120;-5.168;2023-09-18T14:55:58;9.40;;;1.43;;
69744;SDS011;57015;50.120;-5.168;2023-09-18T14:58:24;7.80;;;1.35;;
69744;SDS011;57015;50.120;-5.168;2023-09-18T15:00:50;5.47;;;1.20;;